sensor_id;sensor_type;location;lat;lon;timestamp;P1;durP1;ratioP1;P2;durP2;ratioP2
842;SDS011;407;48.884;9.126;2022-10-16T00:01:21;4.90;;;1.63;;
842;SDS011;407;48.884;9.126;2022-10-16T00:03:49;4.93;;;1.50;;
842;SDS011;407;48.884;9.126;2022-10-16T00:06:15;6.57;;;1.60;;
842;SDS011;407;48.884;9.126;2022-10-16T00:08:42;4.63;;;1.30;;
842;SDS011;407;48.884;9.126;2022-10-16T00:11:09;5.50;;;1.50;;
842;SDS011;407;48.884;9.126;2022-10-16T00:13:37;6.30;;;1.50;;
842;SDS011;407;48.884;9.126;2022-10-16T00:16:04;4.82;;;1.40;;
842;SDS011;407;48.884;9.126;2022-10-16T00:18:32;5.10;;;1.30;;
842;SDS011;407;48.884;9.126;2022-10-16T00:21:02;5.60;;;1.20;;
842;SDS011;407;48.884;9.126;2022-10-16T00:23:29;5.57;;;1.20;;
842;SDS011;407;48.884;9.126;2022-10-16T00:25:56;8.17;;;2.00;;
842;SDS011;407;48.884;9.126;2022-10-16T00:28:23;5.60;;;1.50;;
842;SDS011;407;48.884;9.126;2022-10-16T00:30:49;6.20;;;1.30;;
842;SDS011;407;48.884;9.126;2022-10-16T00:33:14;4.60;;;1.30;;
842;SDS011;407;48.884;9.126;2022-10-16T00:35:40;5.10;;;1.60;;
842;SDS011;407;48.884;9.126;2022-10-16T00:38:05;6.03;;;1.10;;
842;SDS011;407;48.884;9.126;2022-10-16T00:40:31;5.00;;;1.50;;
842;SDS011;407;48.884;9.126;2022-10-16T00:42:57;4.90;;;1.30;;
842;SDS011;407;48.884;9.126;2022-10-16T00:45:23;6.80;;;1.50;;
842;SDS011;407;48.884;9.126;2022-10-16T00:47:49;5.13;;;1.58;;
842;SDS011;407;48.884;9.126;2022-10-16T00:50:33;4.93;;;1.20;;
842;SDS011;407;48.884;9.126;2022-10-16T00:53:00;5.13;;;1.40;;
842;SDS011;407;48.884;9.126;2022-10-16T00:55:26;5.35;;;1.52;;
842;SDS011;407;48.884;9.126;2022-10-16T00:57:54;5.40;;;1.40;;
842;SDS011;407;48.884;9.126;2022-10-16T01:00:23;6.50;;;1.50;;
842;SDS011;407;48.884;9.126;2022-10-16T01:03:00;6.45;;;1.67;;
842;SDS011;407;48.884;9.126;2022-10-16T01:05:40;5.38;;;1.60;;
842;SDS011;407;48.884;9.126;2022-10-16T01:08:26;5.50;;;1.80;;
842;SDS011;407;48.884;9.126;2022-10-16T01:11:05;5.72;;;1.58;;
842;SDS011;407;48.884;9.126;2022-10-16T01:13:46;5.80;;;1.70;;
842;SDS011;407;48.884;9.126;2022-10-16T01:19:02;5.88;;;1.80;;
842;SDS011;407;48.884;9.126;2022-10-16T01:21:36;5.90;;;1.25;;
842;SDS011;407;48.884;9.126;2022-10-16T01:32:40;5.20;;;1.60;;
842;SDS011;407;48.884;9.126;2022-10-16T01:38:33;6.00;;;1.60;;
842;SDS011;407;48.884;9.126;2022-10-16T01:41:09;5.43;;;1.45;;
842;SDS011;407;48.884;9.126;2022-10-16T01:43:43;4.60;;;1.30;;
842;SDS011;407;48.884;9.126;2022-10-16T01:46:14;5.00;;;1.40;;
842;SDS011;407;48.884;9.126;2022-10-16T01:48:43;4.70;;;1.30;;
842;SDS011;407;48.884;9.126;2022-10-16T01:51:11;6.20;;;1.40;;
842;SDS011;407;48.884;9.126;2022-10-16T01:53:38;5.38;;;1.50;;
842;SDS011;407;48.884;9.126;2022-10-16T01:56:07;4.80;;;1.38;;
842;SDS011;407;48.884;9.126;2022-10-16T01:58:37;5.00;;;1.30;;
842;SDS011;407;48.884;9.126;2022-10-16T02:01:08;5.38;;;1.60;;
842;SDS011;407;48.884;9.126;2022-10-16T02:03:37;5.33;;;1.70;;
842;SDS011;407;48.884;9.126;2022-10-16T02:06:06;5.40;;;1.60;;
842;SDS011;407;48.884;9.126;2022-10-16T02:08:32;6.38;;;1.73;;
842;SDS011;407;48.884;9.126;2022-10-16T02:10:58;6.50;;;1.93;;
842;SDS011;407;48.884;9.126;2022-10-16T02:16:00;6.40;;;1.50;;
842;SDS011;407;48.884;9.126;2022-10-16T02:18:26;5.73;;;1.80;;
842;SDS011;407;48.884;9.126;2022-10-16T02:20:59;5.38;;;1.70;;
842;SDS011;407;48.884;9.126;2022-10-16T02:26:08;4.93;;;1.70;;
842;SDS011;407;48.884;9.126;2022-10-16T02:28:46;4.93;;;1.60;;
842;SDS011;407;48.884;9.126;2022-10-16T02:31:18;5.03;;;1.58;;
842;SDS011;407;48.884;9.126;2022-10-16T02:33:50;5.85;;;2.20;;
842;SDS011;407;48.884;9.126;2022-10-16T02:36:17;5.80;;;1.70;;
842;SDS011;407;48.884;9.126;2022-10-16T02:38:43;5.37;;;1.57;;
842;SDS011;407;48.884;9.126;2022-10-16T02:41:09;5.78;;;2.10;;
842;SDS011;407;48.884;9.126;2022-10-16T02:43:35;5.20;;;1.70;;
842;SDS011;407;48.884;9.126;2022-10-16T02:46:00;5.60;;;1.77;;
842;SDS011;407;48.884;9.126;2022-10-16T02:48:26;6.15;;;1.65;;
842;SDS011;407;48.884;9.126;2022-10-16T02:50:51;5.00;;;1.60;;
842;SDS011;407;48.884;9.126;2022-10-16T02:53:17;6.03;;;1.80;;
842;SDS011;407;48.884;9.126;2022-10-16T02:55:43;5.57;;;1.60;;
842;SDS011;407;48.884;9.126;2022-10-16T02:58:08;5.90;;;1.80;;
842;SDS011;407;48.884;9.126;2022-10-16T03:00:34;5.23;;;1.67;;
842;SDS011;407;48.884;9.126;2022-10-16T03:02:59;5.70;;;1.75;;
842;SDS011;407;48.884;9.126;2022-10-16T03:05:25;7.28;;;1.63;;
842;SDS011;407;48.884;9.126;2022-10-16T03:07:51;5.10;;;1.80;;
842;SDS011;407;48.884;9.126;2022-10-16T03:10:17;6.75;;;1.77;;
842;SDS011;407;48.884;9.126;2022-10-16T03:12:43;9.77;;;1.80;;
842;SDS011;407;48.884;9.126;2022-10-16T03:15:09;5.63;;;1.70;;
842;SDS011;407;48.884;9.126;2022-10-16T03:17:35;7.68;;;2.00;;
842;SDS011;407;48.884;9.126;2022-10-16T03:20:01;7.33;;;1.90;;
842;SDS011;407;48.884;9.126;2022-10-16T03:22:27;5.25;;;1.90;;
842;SDS011;407;48.884;9.126;2022-10-16T03:24:53;5.10;;;1.60;;
842;SDS011;407;48.884;9.126;2022-10-16T03:27:19;5.73;;;2.10;;
842;SDS011;407;48.884;9.126;2022-10-16T03:29:44;5.60;;;1.80;;
842;SDS011;407;48.884;9.126;2022-10-16T03:32:10;6.88;;;2.00;;
842;SDS011;407;48.884;9.126;2022-10-16T03:34:42;5.33;;;1.70;;
842;SDS011;407;48.884;9.126;2022-10-16T03:37:08;5.90;;;2.00;;
842;SDS011;407;48.884;9.126;2022-10-16T03:39:34;6.47;;;2.20;;
842;SDS011;407;48.884;9.126;2022-10-16T03:41:59;5.40;;;1.90;;
842;SDS011;407;48.884;9.126;2022-10-16T03:44:25;7.05;;;2.20;;
842;SDS011;407;48.884;9.126;2022-10-16T03:46:50;5.60;;;1.98;;
842;SDS011;407;48.884;9.126;2022-10-16T03:49:16;7.80;;;1.70;;
842;SDS011;407;48.884;9.126;2022-10-16T03:51:42;6.20;;;1.60;;
842;SDS011;407;48.884;9.126;2022-10-16T03:54:07;6.40;;;2.00;;
842;SDS011;407;48.884;9.126;2022-10-16T03:56:34;6.00;;;1.83;;
842;SDS011;407;48.884;9.126;2022-10-16T03:59:00;7.40;;;2.10;;
842;SDS011;407;48.884;9.126;2022-10-16T04:01:25;5.73;;;1.80;;
842;SDS011;407;48.884;9.126;2022-10-16T04:03:51;6.65;;;2.40;;
842;SDS011;407;48.884;9.126;2022-10-16T04:06:16;6.90;;;1.80;;
842;SDS011;407;48.884;9.126;2022-10-16T04:08:43;10.03;;;2.30;;
842;SDS011;407;48.884;9.126;2022-10-16T04:11:09;5.93;;;1.73;;
842;SDS011;407;48.884;9.126;2022-10-16T04:13:34;5.00;;;1.70;;
842;SDS011;407;48.884;9.126;2022-10-16T04:16:00;7.30;;;2.23;;
842;SDS011;407;48.884;9.126;2022-10-16T04:18:25;5.30;;;1.90;;
842;SDS011;407;48.884;9.126;2022-10-16T04:20:52;5.50;;;1.80;;
842;SDS011;407;48.884;9.126;2022-10-16T04:23:18;8.18;;;2.10;;
842;SDS011;407;48.884;9.126;2022-10-16T04:25:43;6.17;;;1.87;;
842;SDS011;407;48.884;9.126;2022-10-16T04:28:09;6.73;;;1.70;;
842;SDS011;407;48.884;9.126;2022-10-16T04:30:37;7.00;;;2.00;;
842;SDS011;407;48.884;9.126;2022-10-16T04:33:03;6.30;;;2.15;;
842;SDS011;407;48.884;9.126;2022-10-16T04:35:29;6.10;;;2.00;;
842;SDS011;407;48.884;9.126;2022-10-16T04:37:56;6.78;;;2.00;;
842;SDS011;407;48.884;9.126;2022-10-16T04:40:23;6.00;;;2.10;;
842;SDS011;407;48.884;9.126;2022-10-16T04:42:48;5.30;;;1.80;;
842;SDS011;407;48.884;9.126;2022-10-16T04:45:14;6.90;;;2.10;;
842;SDS011;407;48.884;9.126;2022-10-16T04:47:40;6.30;;;1.93;;
842;SDS011;407;48.884;9.126;2022-10-16T04:50:05;6.30;;;2.20;;
842;SDS011;407;48.884;9.126;2022-10-16T04:52:32;5.20;;;2.00;;
842;SDS011;407;48.884;9.126;2022-10-16T04:54:58;6.35;;;2.05;;
842;SDS011;407;48.884;9.126;2022-10-16T04:57:26;6.00;;;2.08;;
842;SDS011;407;48.884;9.126;2022-10-16T04:59:52;6.22;;;2.10;;
842;SDS011;407;48.884;9.126;2022-10-16T05:02:18;6.90;;;2.00;;
842;SDS011;407;48.884;9.126;2022-10-16T05:04:44;6.27;;;2.50;;
842;SDS011;407;48.884;9.126;2022-10-16T05:07:09;6.55;;;2.30;;
842;SDS011;407;48.884;9.126;2022-10-16T05:09:35;6.40;;;2.25;;
842;SDS011;407;48.884;9.126;2022-10-16T05:12:00;5.47;;;2.00;;
842;SDS011;407;48.884;9.126;2022-10-16T05:14:26;6.63;;;2.10;;
842;SDS011;407;48.884;9.126;2022-10-16T05:16:52;5.30;;;2.10;;
842;SDS011;407;48.884;9.126;2022-10-16T05:19:17;6.20;;;2.40;;
842;SDS011;407;48.884;9.126;2022-10-16T05:21:43;10.17;;;2.27;;
842;SDS011;407;48.884;9.126;2022-10-16T05:24:09;5.30;;;2.10;;
842;SDS011;407;48.884;9.126;2022-10-16T05:26:34;7.07;;;2.17;;
842;SDS011;407;48.884;9.126;2022-10-16T05:29:00;6.20;;;2.10;;
842;SDS011;407;48.884;9.126;2022-10-16T05:31:25;6.40;;;2.10;;
842;SDS011;407;48.884;9.126;2022-10-16T05:33:51;7.27;;;2.40;;
842;SDS011;407;48.884;9.126;2022-10-16T05:36:17;5.80;;;1.90;;
842;SDS011;407;48.884;9.126;2022-10-16T05:38:43;5.13;;;1.90;;
842;SDS011;407;48.884;9.126;2022-10-16T05:41:09;8.10;;;2.25;;
842;SDS011;407;48.884;9.126;2022-10-16T05:43:34;6.90;;;2.00;;
842;SDS011;407;48.884;9.126;2022-10-16T05:46:01;5.30;;;2.10;;
842;SDS011;407;48.884;9.126;2022-10-16T05:48:30;6.97;;;2.10;;
842;SDS011;407;48.884;9.126;2022-10-16T05:50:58;5.20;;;2.05;;
842;SDS011;407;48.884;9.126;2022-10-16T05:53:32;6.73;;;2.17;;
842;SDS011;407;48.884;9.126;2022-10-16T05:55:59;5.50;;;1.85;;
842;SDS011;407;48.884;9.126;2022-10-16T05:58:25;8.00;;;1.93;;
842;SDS011;407;48.884;9.126;2022-10-16T06:03:21;5.18;;;1.60;;
842;SDS011;407;48.884;9.126;2022-10-16T06:05:47;5.70;;;2.00;;
842;SDS011;407;48.884;9.126;2022-10-16T06:08:12;6.10;;;2.10;;
842;SDS011;407;48.884;9.126;2022-10-16T06:10:38;5.82;;;2.40;;
842;SDS011;407;48.884;9.126;2022-10-16T06:13:03;6.50;;;2.22;;
842;SDS011;407;48.884;9.126;2022-10-16T06:15:29;5.63;;;1.90;;
842;SDS011;407;48.884;9.126;2022-10-16T06:17:55;5.70;;;1.90;;
842;SDS011;407;48.884;9.126;2022-10-16T06:20:20;6.93;;;2.10;;
842;SDS011;407;48.884;9.126;2022-10-16T06:22:46;6.15;;;2.00;;
842;SDS011;407;48.884;9.126;2022-10-16T06:25:11;5.88;;;1.88;;
842;SDS011;407;48.884;9.126;2022-10-16T06:27:39;5.57;;;1.93;;
842;SDS011;407;48.884;9.126;2022-10-16T06:30:05;5.10;;;2.10;;
842;SDS011;407;48.884;9.126;2022-10-16T06:32:32;5.40;;;2.00;;
842;SDS011;407;48.884;9.126;2022-10-16T06:34:57;5.90;;;2.20;;
842;SDS011;407;48.884;9.126;2022-10-16T06:37:23;6.93;;;2.30;;
842;SDS011;407;48.884;9.126;2022-10-16T06:39:49;6.95;;;2.33;;
842;SDS011;407;48.884;9.126;2022-10-16T06:42:17;6.88;;;1.85;;
842;SDS011;407;48.884;9.126;2022-10-16T06:44:43;8.43;;;2.20;;
842;SDS011;407;48.884;9.126;2022-10-16T06:47:08;7.45;;;2.00;;
842;SDS011;407;48.884;9.126;2022-10-16T06:49:34;6.27;;;2.40;;
842;SDS011;407;48.884;9.126;2022-10-16T06:52:00;6.00;;;2.00;;
842;SDS011;407;48.884;9.126;2022-10-16T06:54:26;5.40;;;2.00;;
842;SDS011;407;48.884;9.126;2022-10-16T06:56:52;6.53;;;1.88;;
842;SDS011;407;48.884;9.126;2022-10-16T06:59:19;5.60;;;2.08;;
842;SDS011;407;48.884;9.126;2022-10-16T07:01:45;5.40;;;2.10;;
842;SDS011;407;48.884;9.126;2022-10-16T07:04:11;5.75;;;2.17;;
842;SDS011;407;48.884;9.126;2022-10-16T07:06:37;5.73;;;2.00;;
842;SDS011;407;48.884;9.126;2022-10-16T07:09:04;5.90;;;2.40;;
842;SDS011;407;48.884;9.126;2022-10-16T07:11:31;5.80;;;2.25;;
842;SDS011;407;48.884;9.126;2022-10-16T07:13:58;5.50;;;2.00;;
842;SDS011;407;48.884;9.126;2022-10-16T07:16:25;6.00;;;2.20;;
842;SDS011;407;48.884;9.126;2022-10-16T07:18:53;8.03;;;2.40;;
842;SDS011;407;48.884;9.126;2022-10-16T07:21:24;8.73;;;2.65;;
842;SDS011;407;48.884;9.126;2022-10-16T07:23:52;7.30;;;2.20;;
842;SDS011;407;48.884;9.126;2022-10-16T07:26:18;7.53;;;2.40;;
842;SDS011;407;48.884;9.126;2022-10-16T07:28:44;7.82;;;2.30;;
842;SDS011;407;48.884;9.126;2022-10-16T07:31:11;7.40;;;2.30;;
842;SDS011;407;48.884;9.126;2022-10-16T07:33:39;6.18;;;2.50;;
842;SDS011;407;48.884;9.126;2022-10-16T07:36:06;10.25;;;2.63;;
842;SDS011;407;48.884;9.126;2022-10-16T07:38:33;7.10;;;2.75;;
842;SDS011;407;48.884;9.126;2022-10-16T07:41:05;7.57;;;2.80;;
842;SDS011;407;48.884;9.126;2022-10-16T07:43:32;7.30;;;2.53;;
842;SDS011;407;48.884;9.126;2022-10-16T07:45:58;7.30;;;3.17;;
842;SDS011;407;48.884;9.126;2022-10-16T07:48:26;6.72;;;2.50;;
842;SDS011;407;48.884;9.126;2022-10-16T07:50:56;6.43;;;2.80;;
842;SDS011;407;48.884;9.126;2022-10-16T07:53:23;7.75;;;2.67;;
842;SDS011;407;48.884;9.126;2022-10-16T07:55:48;5.80;;;2.10;;
842;SDS011;407;48.884;9.126;2022-10-16T07:58:14;8.73;;;2.30;;
842;SDS011;407;48.884;9.126;2022-10-16T08:00:39;6.60;;;2.23;;
842;SDS011;407;48.884;9.126;2022-10-16T08:03:05;6.97;;;2.70;;
842;SDS011;407;48.884;9.126;2022-10-16T08:05:31;6.20;;;2.10;;
842;SDS011;407;48.884;9.126;2022-10-16T08:07:57;7.78;;;2.13;;
842;SDS011;407;48.884;9.126;2022-10-16T08:10:23;6.33;;;1.90;;
842;SDS011;407;48.884;9.126;2022-10-16T08:12:51;6.82;;;2.60;;
842;SDS011;407;48.884;9.126;2022-10-16T08:15:17;6.43;;;2.28;;
842;SDS011;407;48.884;9.126;2022-10-16T08:17:43;6.10;;;2.20;;
842;SDS011;407;48.884;9.126;2022-10-16T08:20:09;5.83;;;2.00;;
842;SDS011;407;48.884;9.126;2022-10-16T08:22:35;6.60;;;2.00;;
842;SDS011;407;48.884;9.126;2022-10-16T08:25:01;5.90;;;1.67;;
842;SDS011;407;48.884;9.126;2022-10-16T08:27:31;6.60;;;1.90;;
842;SDS011;407;48.884;9.126;2022-10-16T08:29:57;7.63;;;2.10;;
842;SDS011;407;48.884;9.126;2022-10-16T08:32:22;11.30;;;2.45;;
842;SDS011;407;48.884;9.126;2022-10-16T08:34:48;8.23;;;1.70;;
842;SDS011;407;48.884;9.126;2022-10-16T08:37:14;6.88;;;2.10;;
842;SDS011;407;48.884;9.126;2022-10-16T08:39:39;7.50;;;1.70;;
842;SDS011;407;48.884;9.126;2022-10-16T08:47:34;6.70;;;2.10;;
842;SDS011;407;48.884;9.126;2022-10-16T08:50:13;7.00;;;2.10;;
842;SDS011;407;48.884;9.126;2022-10-16T08:52:47;5.57;;;1.85;;
842;SDS011;407;48.884;9.126;2022-10-16T08:55:46;6.37;;;2.10;;
842;SDS011;407;48.884;9.126;2022-10-16T08:58:14;5.97;;;1.87;;
842;SDS011;407;48.884;9.126;2022-10-16T09:00:41;6.22;;;1.80;;
842;SDS011;407;48.884;9.126;2022-10-16T09:06:05;6.47;;;2.13;;
842;SDS011;407;48.884;9.126;2022-10-16T09:17:26;6.03;;;2.03;;
842;SDS011;407;48.884;9.126;2022-10-16T09:22:36;6.47;;;2.50;;
842;SDS011;407;48.884;9.126;2022-10-16T09:25:10;5.83;;;1.60;;
842;SDS011;407;48.884;9.126;2022-10-16T09:27:37;6.65;;;1.90;;
842;SDS011;407;48.884;9.126;2022-10-16T09:30:10;8.97;;;2.30;;
842;SDS011;407;48.884;9.126;2022-10-16T09:32:37;9.10;;;1.80;;
842;SDS011;407;48.884;9.126;2022-10-16T09:35:04;5.90;;;1.50;;
842;SDS011;407;48.884;9.126;2022-10-16T09:37:35;5.38;;;1.60;;
842;SDS011;407;48.884;9.126;2022-10-16T09:40:01;5.20;;;1.60;;
842;SDS011;407;48.884;9.126;2022-10-16T09:42:31;5.25;;;1.42;;
842;SDS011;407;48.884;9.126;2022-10-16T09:44:59;6.15;;;1.60;;
842;SDS011;407;48.884;9.126;2022-10-16T09:47:26;6.70;;;2.10;;
842;SDS011;407;48.884;9.126;2022-10-16T09:49:54;6.60;;;2.20;;
842;SDS011;407;48.884;9.126;2022-10-16T09:52:27;5.65;;;2.60;;
842;SDS011;407;48.884;9.126;2022-10-16T09:57:21;7.00;;;2.50;;
842;SDS011;407;48.884;9.126;2022-10-16T10:00:08;7.00;;;3.70;;
842;SDS011;407;48.884;9.126;2022-10-16T10:02:34;6.38;;;3.72;;
842;SDS011;407;48.884;9.126;2022-10-16T10:05:03;6.90;;;4.20;;
842;SDS011;407;48.884;9.126;2022-10-16T10:07:31;8.00;;;3.90;;
842;SDS011;407;48.884;9.126;2022-10-16T10:09:59;6.05;;;2.70;;
842;SDS011;407;48.884;9.126;2022-10-16T10:12:29;7.70;;;2.40;;
842;SDS011;407;48.884;9.126;2022-10-16T10:15:07;6.10;;;2.30;;
842;SDS011;407;48.884;9.126;2022-10-16T10:17:45;6.63;;;1.88;;
842;SDS011;407;48.884;9.126;2022-10-16T10:20:23;6.00;;;1.80;;
842;SDS011;407;48.884;9.126;2022-10-16T10:22:54;6.65;;;2.30;;
842;SDS011;407;48.884;9.126;2022-10-16T10:36:38;6.00;;;2.70;;
842;SDS011;407;48.884;9.126;2022-10-16T10:47:17;5.40;;;2.08;;
842;SDS011;407;48.884;9.126;2022-10-16T10:49:51;5.50;;;1.90;;
842;SDS011;407;48.884;9.126;2022-10-16T10:57:43;6.77;;;2.00;;
842;SDS011;407;48.884;9.126;2022-10-16T11:01:01;6.20;;;2.00;;
842;SDS011;407;48.884;9.126;2022-10-16T11:03:46;7.78;;;2.40;;
842;SDS011;407;48.884;9.126;2022-10-16T11:06:32;5.50;;;1.90;;
842;SDS011;407;48.884;9.126;2022-10-16T11:09:11;5.50;;;1.70;;
842;SDS011;407;48.884;9.126;2022-10-16T11:11:42;5.90;;;1.80;;
842;SDS011;407;48.884;9.126;2022-10-16T11:14:19;6.18;;;1.90;;
842;SDS011;407;48.884;9.126;2022-10-16T11:22:30;7.00;;;2.10;;
842;SDS011;407;48.884;9.126;2022-10-16T11:27:40;5.78;;;2.00;;
842;SDS011;407;48.884;9.126;2022-10-16T11:30:19;5.28;;;1.80;;
842;SDS011;407;48.884;9.126;2022-10-16T11:35:38;5.30;;;1.60;;
842;SDS011;407;48.884;9.126;2022-10-16T11:41:29;6.53;;;2.00;;
842;SDS011;407;48.884;9.126;2022-10-16T11:46:31;5.40;;;1.60;;
842;SDS011;407;48.884;9.126;2022-10-16T11:49:09;5.43;;;1.77;;
842;SDS011;407;48.884;9.126;2022-10-16T11:51:42;5.82;;;1.50;;
842;SDS011;407;48.884;9.126;2022-10-16T11:54:20;5.75;;;1.75;;
842;SDS011;407;48.884;9.126;2022-10-16T11:56:57;7.87;;;2.30;;
842;SDS011;407;48.884;9.126;2022-10-16T11:59:30;6.78;;;1.88;;
842;SDS011;407;48.884;9.126;2022-10-16T12:10:38;7.82;;;2.25;;
842;SDS011;407;48.884;9.126;2022-10-16T12:18:36;7.25;;;1.80;;
842;SDS011;407;48.884;9.126;2022-10-16T12:21:03;7.10;;;2.00;;
842;SDS011;407;48.884;9.126;2022-10-16T12:23:32;5.30;;;1.63;;
842;SDS011;407;48.884;9.126;2022-10-16T12:26:02;5.68;;;1.77;;
842;SDS011;407;48.884;9.126;2022-10-16T12:28:29;6.40;;;1.60;;
842;SDS011;407;48.884;9.126;2022-10-16T12:31:03;8.07;;;2.30;;
842;SDS011;407;48.884;9.126;2022-10-16T12:33:35;6.00;;;1.73;;
842;SDS011;407;48.884;9.126;2022-10-16T12:36:06;5.43;;;1.77;;
842;SDS011;407;48.884;9.126;2022-10-16T12:38:47;5.60;;;1.73;;
842;SDS011;407;48.884;9.126;2022-10-16T12:41:26;8.00;;;2.03;;
842;SDS011;407;48.884;9.126;2022-10-16T12:43:53;6.00;;;1.80;;
842;SDS011;407;48.884;9.126;2022-10-16T12:49:04;6.90;;;1.80;;
842;SDS011;407;48.884;9.126;2022-10-16T12:51:39;6.00;;;1.90;;
842;SDS011;407;48.884;9.126;2022-10-16T13:02:15;6.43;;;2.08;;
842;SDS011;407;48.884;9.126;2022-10-16T13:18:44;6.45;;;1.80;;
842;SDS011;407;48.884;9.126;2022-10-16T13:27:22;6.90;;;2.67;;
842;SDS011;407;48.884;9.126;2022-10-16T13:32:38;6.50;;;2.40;;
842;SDS011;407;48.884;9.126;2022-10-16T13:35:15;6.43;;;2.40;;
842;SDS011;407;48.884;9.126;2022-10-16T13:37:50;7.20;;;2.00;;
842;SDS011;407;48.884;9.126;2022-10-16T13:40:23;9.43;;;2.20;;
842;SDS011;407;48.884;9.126;2022-10-16T13:42:50;10.83;;;2.20;;
842;SDS011;407;48.884;9.126;2022-10-16T13:45:18;6.20;;;1.60;;
842;SDS011;407;48.884;9.126;2022-10-16T13:47:45;6.03;;;2.00;;
842;SDS011;407;48.884;9.126;2022-10-16T13:50:12;6.90;;;1.90;;
842;SDS011;407;48.884;9.126;2022-10-16T13:52:39;7.10;;;2.10;;
842;SDS011;407;48.884;9.126;2022-10-16T13:55:15;6.03;;;1.90;;
842;SDS011;407;48.884;9.126;2022-10-16T13:57:43;5.90;;;1.80;;
842;SDS011;407;48.884;9.126;2022-10-16T14:00:23;8.10;;;1.87;;
842;SDS011;407;48.884;9.126;2022-10-16T14:03:00;6.80;;;1.90;;
842;SDS011;407;48.884;9.126;2022-10-16T14:05:28;6.15;;;1.98;;
842;SDS011;407;48.884;9.126;2022-10-16T14:07:54;6.47;;;2.05;;
842;SDS011;407;48.884;9.126;2022-10-16T14:10:28;6.77;;;1.73;;
842;SDS011;407;48.884;9.126;2022-10-16T14:12:59;6.55;;;2.08;;
842;SDS011;407;48.884;9.126;2022-10-16T14:15:27;6.18;;;2.10;;
842;SDS011;407;48.884;9.126;2022-10-16T14:17:54;6.50;;;2.40;;
842;SDS011;407;48.884;9.126;2022-10-16T14:20:21;7.40;;;2.40;;
842;SDS011;407;48.884;9.126;2022-10-16T14:23:04;7.07;;;2.60;;
842;SDS011;407;48.884;9.126;2022-10-16T14:25:43;6.97;;;2.50;;
842;SDS011;407;48.884;9.126;2022-10-16T14:30:48;7.60;;;2.70;;
842;SDS011;407;48.884;9.126;2022-10-16T14:33:51;6.38;;;2.20;;
842;SDS011;407;48.884;9.126;2022-10-16T14:38:39;6.20;;;2.37;;
842;SDS011;407;48.884;9.126;2022-10-16T14:41:06;7.55;;;2.20;;
842;SDS011;407;48.884;9.126;2022-10-16T14:43:33;7.88;;;2.20;;
842;SDS011;407;48.884;9.126;2022-10-16T14:46:02;7.40;;;1.83;;
842;SDS011;407;48.884;9.126;2022-10-16T14:48:31;7.07;;;2.30;;
842;SDS011;407;48.884;9.126;2022-10-16T14:50:57;6.90;;;2.03;;
842;SDS011;407;48.884;9.126;2022-10-16T14:53:23;6.68;;;2.10;;
842;SDS011;407;48.884;9.126;2022-10-16T14:55:49;6.70;;;1.80;;
842;SDS011;407;48.884;9.126;2022-10-16T14:58:15;5.80;;;1.75;;
842;SDS011;407;48.884;9.126;2022-10-16T15:00:46;6.27;;;1.97;;
842;SDS011;407;48.884;9.126;2022-10-16T15:03:11;6.25;;;2.00;;
842;SDS011;407;48.884;9.126;2022-10-16T15:05:37;6.75;;;2.40;;
842;SDS011;407;48.884;9.126;2022-10-16T15:08:03;6.07;;;2.00;;
842;SDS011;407;48.884;9.126;2022-10-16T15:10:29;7.50;;;2.70;;
842;SDS011;407;48.884;9.126;2022-10-16T15:12:57;8.75;;;2.55;;
842;SDS011;407;48.884;9.126;2022-10-16T15:17:55;6.00;;;2.20;;
842;SDS011;407;48.884;9.126;2022-10-16T15:20:25;7.05;;;2.50;;
842;SDS011;407;48.884;9.126;2022-10-16T15:22:52;7.60;;;2.37;;
842;SDS011;407;48.884;9.126;2022-10-16T15:25:31;6.10;;;1.93;;
842;SDS011;407;48.884;9.126;2022-10-16T15:27:57;9.47;;;1.93;;
842;SDS011;407;48.884;9.126;2022-10-16T15:30:24;6.18;;;2.00;;
842;SDS011;407;48.884;9.126;2022-10-16T15:32:50;7.53;;;2.13;;
842;SDS011;407;48.884;9.126;2022-10-16T15:35:16;7.00;;;2.40;;
842;SDS011;407;48.884;9.126;2022-10-16T15:37:42;7.15;;;2.00;;
842;SDS011;407;48.884;9.126;2022-10-16T15:40:08;9.80;;;1.92;;
842;SDS011;407;48.884;9.126;2022-10-16T15:42:35;6.88;;;2.42;;
842;SDS011;407;48.884;9.126;2022-10-16T15:45:00;6.50;;;2.20;;
842;SDS011;407;48.884;9.126;2022-10-16T15:47:26;8.32;;;2.20;;
842;SDS011;407;48.884;9.126;2022-10-16T15:49:52;5.80;;;2.00;;
842;SDS011;407;48.884;9.126;2022-10-16T15:52:17;5.90;;;2.10;;
842;SDS011;407;48.884;9.126;2022-10-16T15:54:43;5.70;;;1.80;;
842;SDS011;407;48.884;9.126;2022-10-16T15:57:09;8.90;;;1.80;;
842;SDS011;407;48.884;9.126;2022-10-16T15:59:34;8.13;;;1.90;;
842;SDS011;407;48.884;9.126;2022-10-16T16:02:00;6.10;;;1.80;;
842;SDS011;407;48.884;9.126;2022-10-16T16:04:25;8.70;;;2.10;;
842;SDS011;407;48.884;9.126;2022-10-16T16:06:51;7.20;;;1.90;;
842;SDS011;407;48.884;9.126;2022-10-16T16:09:17;7.43;;;2.40;;
842;SDS011;407;48.884;9.126;2022-10-16T16:11:42;7.68;;;2.60;;
842;SDS011;407;48.884;9.126;2022-10-16T16:14:10;6.20;;;2.05;;
842;SDS011;407;48.884;9.126;2022-10-16T16:16:38;6.40;;;2.15;;
842;SDS011;407;48.884;9.126;2022-10-16T16:19:04;9.73;;;3.17;;
842;SDS011;407;48.884;9.126;2022-10-16T16:21:31;7.38;;;2.50;;
842;SDS011;407;48.884;9.126;2022-10-16T16:23:57;5.70;;;1.80;;
842;SDS011;407;48.884;9.126;2022-10-16T16:26:24;6.27;;;2.10;;
842;SDS011;407;48.884;9.126;2022-10-16T16:28:59;6.90;;;1.80;;
842;SDS011;407;48.884;9.126;2022-10-16T16:31:25;5.60;;;1.80;;
842;SDS011;407;48.884;9.126;2022-10-16T16:33:53;6.63;;;1.98;;
842;SDS011;407;48.884;9.126;2022-10-16T16:36:18;6.50;;;2.20;;
842;SDS011;407;48.884;9.126;2022-10-16T16:38:44;7.03;;;2.40;;
842;SDS011;407;48.884;9.126;2022-10-16T16:41:11;7.68;;;1.92;;
842;SDS011;407;48.884;9.126;2022-10-16T16:43:44;6.00;;;2.00;;
842;SDS011;407;48.884;9.126;2022-10-16T16:46:12;6.90;;;1.83;;
842;SDS011;407;48.884;9.126;2022-10-16T16:48:38;6.70;;;2.42;;
842;SDS011;407;48.884;9.126;2022-10-16T16:53:32;11.23;;;2.30;;
842;SDS011;407;48.884;9.126;2022-10-16T16:56:03;10.02;;;2.20;;
842;SDS011;407;48.884;9.126;2022-10-16T16:58:29;7.30;;;2.38;;
842;SDS011;407;48.884;9.126;2022-10-16T17:00:55;9.73;;;2.50;;
842;SDS011;407;48.884;9.126;2022-10-16T17:03:25;6.57;;;2.40;;
842;SDS011;407;48.884;9.126;2022-10-16T17:05:56;6.93;;;2.00;;
842;SDS011;407;48.884;9.126;2022-10-16T17:08:29;6.25;;;2.30;;
842;SDS011;407;48.884;9.126;2022-10-16T17:10:55;7.60;;;2.80;;
842;SDS011;407;48.884;9.126;2022-10-16T17:13:22;8.30;;;2.97;;
842;SDS011;407;48.884;9.126;2022-10-16T17:15:53;6.13;;;2.40;;
842;SDS011;407;48.884;9.126;2022-10-16T17:18:19;6.90;;;2.90;;
842;SDS011;407;48.884;9.126;2022-10-16T17:20:46;7.90;;;2.60;;
842;SDS011;407;48.884;9.126;2022-10-16T17:23:12;8.00;;;2.70;;
842;SDS011;407;48.884;9.126;2022-10-16T17:25:39;7.07;;;2.42;;
842;SDS011;407;48.884;9.126;2022-10-16T17:28:05;7.78;;;2.88;;
842;SDS011;407;48.884;9.126;2022-10-16T17:30:32;7.57;;;2.70;;
842;SDS011;407;48.884;9.126;2022-10-16T17:32:59;7.90;;;3.00;;
842;SDS011;407;48.884;9.126;2022-10-16T17:35:25;7.90;;;3.00;;
842;SDS011;407;48.884;9.126;2022-10-16T17:37:51;8.98;;;3.38;;
842;SDS011;407;48.884;9.126;2022-10-16T17:40:18;6.70;;;2.80;;
842;SDS011;407;48.884;9.126;2022-10-16T17:42:44;7.50;;;3.10;;
842;SDS011;407;48.884;9.126;2022-10-16T17:45:09;9.07;;;3.93;;
842;SDS011;407;48.884;9.126;2022-10-16T17:47:35;8.80;;;3.93;;
842;SDS011;407;48.884;9.126;2022-10-16T17:50:01;11.60;;;4.10;;
842;SDS011;407;48.884;9.126;2022-10-16T17:52:28;10.07;;;4.35;;
842;SDS011;407;48.884;9.126;2022-10-16T17:54:53;9.33;;;4.20;;
842;SDS011;407;48.884;9.126;2022-10-16T17:57:20;10.30;;;4.13;;
842;SDS011;407;48.884;9.126;2022-10-16T17:59:46;8.70;;;4.03;;
842;SDS011;407;48.884;9.126;2022-10-16T18:02:12;9.77;;;3.42;;
842;SDS011;407;48.884;9.126;2022-10-16T18:04:38;7.70;;;3.22;;
842;SDS011;407;48.884;9.126;2022-10-16T18:07:04;7.75;;;3.70;;
842;SDS011;407;48.884;9.126;2022-10-16T18:09:30;12.20;;;4.73;;
842;SDS011;407;48.884;9.126;2022-10-16T18:11:56;9.00;;;3.80;;
842;SDS011;407;48.884;9.126;2022-10-16T18:14:25;9.60;;;3.45;;
842;SDS011;407;48.884;9.126;2022-10-16T18:16:53;8.05;;;3.50;;